createdAt,value
2019-04-21T00:00:56.829Z,12.37
2019-04-21T00:03:27.564Z,11.90
2019-04-21T00:06:09.482Z,16.83
2019-04-21T00:08:56.526Z,15.10
2019-04-21T00:11:09.747Z,18.10
2019-04-21T00:13:33.184Z,18.70
2019-04-21T00:15:53.993Z,17.93
2019-04-21T00:18:38.412Z,21.03
2019-04-21T00:21:09.843Z,20.60
2019-04-21T00:23:42.486Z,16.40
2019-04-21T00:26:09.048Z,21.23
2019-04-21T00:28:58.130Z,19.83
2019-04-21T00:31:11.702Z,21.10
2019-04-21T00:33:30.018Z,20.87
2019-04-21T00:36:02.102Z,21.73
2019-04-21T00:38:51.856Z,19.57
2019-04-21T00:41:13.433Z,22.43
2019-04-21T00:43:37.489Z,23.17
2019-04-21T00:46:03.244Z,23.50
2019-04-21T00:48:42.457Z,23.30
2019-04-21T00:51:27.547Z,21.63
2019-04-21T00:53:51.180Z,18.83
2019-04-21T00:56:34.034Z,21.97
2019-04-21T00:58:49.862Z,23.37
2019-04-21T01:01:15.220Z,19.80
2019-04-21T01:03:46.224Z,19.43
2019-04-21T01:06:20.146Z,20.10
2019-04-21T01:08:41.374Z,22.47
2019-04-21T01:11:16.518Z,20.70
2019-04-21T01:13:45.568Z,20.47
2019-04-21T01:16:14.296Z,24.17
2019-04-21T01:18:41.012Z,22.33
2019-04-21T01:20:49.647Z,19.67
2019-04-21T01:23:17.320Z,23.33
2019-04-21T01:26:00.675Z,21.17
2019-04-21T01:28:29.055Z,22.13
2019-04-21T01:31:07.486Z,20.23
2019-04-21T01:33:39.845Z,21.43
2019-04-21T01:35:58.379Z,19.80
2019-04-21T01:38:35.703Z,19.57
2019-04-21T01:41:08.610Z,20.47
2019-04-21T01:43:27.588Z,18.97
2019-04-21T01:45:59.457Z,22.27
2019-04-21T01:48:26.724Z,20.97
2019-04-21T01:50:58.156Z,28.37
2019-04-21T01:53:36.804Z,24.27
2019-04-21T01:56:16.891Z,22.30
2019-04-21T01:58:42.805Z,20.07
2019-04-21T02:01:24.623Z,24.77
2019-04-21T02:06:21.262Z,20.73
2019-04-21T02:08:50.982Z,22.43
2019-04-21T02:11:26.414Z,19.80
2019-04-21T02:14:00.413Z,17.73
2019-04-21T02:16:18.198Z,24.03
2019-04-21T02:18:53.058Z,20.23
2019-04-21T02:21:09.476Z,21.37
2019-04-21T02:23:54.337Z,25.67
2019-04-21T02:26:19.111Z,26.17
2019-04-21T02:31:28.687Z,21.43
2019-04-21T02:39:10.471Z,22.43
2019-04-21T02:41:21.487Z,20.97
2019-04-21T02:44:02.526Z,23.70
2019-04-21T02:46:38.192Z,23.10
2019-04-21T02:48:56.421Z,16.43
2019-04-21T02:51:27.640Z,23.73
2019-04-21T02:54:28.768Z,20.50
2019-04-21T02:56:28.394Z,17.67
2019-04-21T03:04:18.449Z,19.30
2019-04-21T03:06:54.155Z,19.90
2019-04-21T03:09:20.536Z,16.87
2019-04-21T03:11:53.457Z,16.50
2019-04-21T03:14:33.186Z,17.90
2019-04-21T03:19:20.017Z,16.40
2019-04-21T03:21:50.644Z,18.77
2019-04-21T03:24:40.264Z,17.50
2019-04-21T03:26:52.313Z,17.43
2019-04-21T03:36:56.562Z,18.00
2019-04-21T03:39:09.520Z,15.00
2019-04-21T03:41:48.847Z,13.40
2019-04-21T03:44:14.519Z,16.27
2019-04-21T03:46:41.376Z,19.17
2019-04-21T03:49:12.480Z,15.87
2019-04-21T03:51:43.930Z,16.77
2019-04-21T03:59:09.971Z,14.47
2019-04-21T04:04:31.913Z,15.03
2019-04-21T04:07:04.435Z,14.40
2019-04-21T04:09:41.836Z,14.67
2019-04-21T04:14:32.687Z,13.27
2019-04-21T04:19:26.475Z,15.40
2019-04-21T04:22:06.023Z,18.83
2019-04-21T04:25:01.176Z,11.77
2019-04-21T04:29:26.304Z,14.13
2019-04-21T04:34:35.946Z,16.87
2019-04-21T04:37:17.393Z,14.93
2019-04-21T04:44:59.704Z,14.47
2019-04-21T04:47:07.341Z,12.33
2019-04-21T04:54:43.559Z,11.87
2019-04-21T04:57:13.851Z,16.70
2019-04-21T04:59:35.443Z,14.73
2019-04-21T05:02:00.236Z,16.77
2019-04-21T05:04:29.514Z,12.80
2019-04-21T05:09:21.470Z,14.10
2019-04-21T05:11:50.837Z,12.70
2019-04-21T05:17:02.344Z,14.40
2019-04-21T05:19:34.975Z,11.70
2019-04-21T05:22:06.815Z,13.30
2019-04-21T05:24:10.869Z,9.80
2019-04-21T05:26:40.214Z,13.90
2019-04-21T05:29:01.878Z,10.03
2019-04-21T05:31:50.679Z,10.30
2019-04-21T05:34:18.498Z,15.30
2019-04-21T05:36:52.048Z,10.93
2019-04-21T05:39:37.765Z,12.70
2019-04-21T05:42:00.794Z,16.13
2019-04-21T05:44:49.274Z,11.50
2019-04-21T05:47:20.595Z,11.90
2019-04-21T05:49:45.169Z,9.47
2019-04-21T05:52:09.461Z,9.27
2019-04-21T05:54:52.750Z,10.13
2019-04-21T05:57:14.365Z,14.07
2019-04-21T05:59:43.723Z,9.37
2019-04-21T06:02:23.937Z,11.27
2019-04-21T06:07:25.686Z,12.10
2019-04-21T06:09:51.352Z,11.93
2019-04-21T06:12:14.614Z,9.27
2019-04-21T06:14:52.075Z,11.10
2019-04-21T06:17:19.238Z,13.63
2019-04-21T06:22:07.633Z,11.03
2019-04-21T06:24:58.390Z,8.17
2019-04-21T06:27:26.313Z,10.37
2019-04-21T06:29:46.553Z,9.53
2019-04-21T06:34:59.124Z,9.47
2019-04-21T06:37:34.755Z,10.17
2019-04-21T06:40:03.179Z,9.60
2019-04-21T06:42:09.065Z,9.40
2019-04-21T06:44:50.031Z,10.43
2019-04-21T06:47:16.213Z,10.87
2019-04-21T06:49:40.475Z,11.83
2019-04-21T06:52:17.878Z,8.63
2019-04-21T06:54:45.596Z,10.50
2019-04-21T06:57:15.164Z,9.10
2019-04-21T06:59:31.997Z,10.03
2019-04-21T07:02:28.591Z,7.00
2019-04-21T07:04:46.941Z,8.23
2019-04-21T07:07:05.177Z,8.03
2019-04-21T07:09:41.286Z,10.10
2019-04-21T07:11:59.692Z,9.13
2019-04-21T07:14:49.921Z,8.87
2019-04-21T07:17:05.274Z,8.20
2019-04-21T07:19:35.241Z,8.50
2019-04-21T07:22:03.333Z,10.47
2019-04-21T07:24:31.272Z,9.40
2019-04-21T07:27:04.210Z,7.50
2019-04-21T07:29:34.486Z,8.70
2019-04-21T07:34:33.368Z,16.67
2019-04-21T07:37:12.688Z,9.53
2019-04-21T07:39:27.057Z,10.43
2019-04-21T07:41:54.084Z,12.93
2019-04-21T07:44:24.288Z,8.70
2019-04-21T07:46:46.324Z,8.63
2019-04-21T07:49:32.690Z,7.93
2019-04-21T07:52:22.282Z,7.77
2019-04-21T07:54:57.004Z,9.50
2019-04-21T07:57:11.296Z,10.70
2019-04-21T07:59:55.109Z,6.03
2019-04-21T08:02:20.186Z,7.17
2019-04-21T08:07:21.811Z,8.67
2019-04-21T08:09:41.224Z,8.93
2019-04-21T08:12:08.199Z,7.07
2019-04-21T08:14:43.965Z,10.57
2019-04-21T08:17:09.541Z,8.60
2019-04-21T08:19:35.876Z,6.43
2019-04-21T08:22:12.595Z,7.73
2019-04-21T08:24:43.843Z,8.57
2019-04-21T08:27:12.061Z,6.67
2019-04-21T08:29:44.677Z,13.10
2019-04-21T08:32:08.160Z,6.70
2019-04-21T08:34:49.349Z,8.53
2019-04-21T08:37:08.629Z,9.50
2019-04-21T08:39:43.602Z,8.17
2019-04-21T08:42:03.342Z,7.93
2019-04-21T08:47:06.049Z,5.00
2019-04-21T08:49:39.270Z,7.12
2019-04-21T08:52:28.420Z,6.45
2019-04-21T08:54:32.325Z,4.90
2019-04-21T08:57:12.999Z,5.53
2019-04-21T08:59:45.966Z,7.37
2019-04-21T09:02:26.054Z,6.60
2019-04-21T09:04:49.104Z,3.70
2019-04-21T09:07:21.317Z,9.40
2019-04-21T09:09:48.383Z,5.37
2019-04-21T09:12:17.780Z,5.50
2019-04-21T09:14:41.849Z,5.05
2019-04-21T09:17:07.168Z,4.25
2019-04-21T09:19:51.468Z,4.72
2019-04-21T09:22:12.222Z,10.70
2019-04-21T09:24:42.824Z,5.33
2019-04-21T09:27:10.173Z,3.13
2019-04-21T09:29:31.022Z,4.80
2019-04-21T09:31:54.484Z,4.80
2019-04-21T09:34:25.612Z,3.80
2019-04-21T09:36:54.447Z,4.53
2019-04-21T09:39:22.626Z,2.63
2019-04-21T09:41:53.473Z,5.90
2019-04-21T09:44:25.446Z,4.00
2019-04-21T09:46:50.602Z,4.57
2019-04-21T09:49:22.491Z,3.40
2019-04-21T09:51:46.364Z,3.00
2019-04-21T09:54:22.354Z,2.87
2019-04-21T09:56:51.057Z,4.57
2019-04-21T09:59:20.786Z,3.03
2019-04-21T10:01:57.500Z,4.00
2019-04-21T10:04:11.994Z,3.03
2019-04-21T10:06:39.804Z,4.03
2019-04-21T10:09:10.225Z,2.60
2019-04-21T10:11:37.621Z,2.57
2019-04-21T10:14:05.573Z,5.43
2019-04-21T10:16:38.610Z,2.53
2019-04-21T10:19:06.931Z,4.00
2019-04-21T10:21:35.974Z,5.43
2019-04-21T10:24:04.156Z,3.27
2019-04-21T10:26:33.249Z,4.40
2019-04-21T10:29:08.274Z,3.37
2019-04-21T10:31:30.424Z,3.80
2019-04-21T10:33:58.922Z,3.27
2019-04-21T10:36:26.905Z,3.55
2019-04-21T10:38:55.736Z,2.90
2019-04-21T10:41:23.994Z,3.23
2019-04-21T10:43:51.652Z,4.12
2019-04-21T10:46:19.311Z,2.80
2019-04-21T10:48:46.985Z,8.43
2019-04-21T10:51:14.936Z,2.73
2019-04-21T10:53:45.032Z,4.12
2019-04-21T10:56:21.861Z,2.90
2019-04-21T10:58:44.556Z,6.03
2019-04-21T11:01:18.835Z,2.23
2019-04-21T11:03:53.103Z,2.70
2019-04-21T11:06:21.119Z,2.85
2019-04-21T11:08:52.182Z,5.23
2019-04-21T11:11:19.623Z,3.90
2019-04-21T11:13:48.455Z,5.37
2019-04-21T11:16:17.248Z,4.73
2019-04-21T11:18:46.095Z,3.17
2019-04-21T11:21:13.855Z,3.73
2019-04-21T11:23:41.501Z,3.05
2019-04-21T11:26:09.981Z,3.90
2019-04-21T11:28:38.923Z,3.30
2019-04-21T11:31:07.049Z,3.00
2019-04-21T11:33:35.606Z,3.20
2019-04-21T11:36:03.611Z,4.60
2019-04-21T11:38:59.780Z,3.17
2019-04-21T11:41:12.177Z,4.33
2019-04-21T11:43:41.258Z,2.57
2019-04-21T11:46:10.658Z,3.33
2019-04-21T11:48:39.873Z,4.17
2019-04-21T11:51:08.915Z,4.37
2019-04-21T11:53:36.990Z,4.53
2019-04-21T11:56:04.900Z,3.43
2019-04-21T11:58:33.747Z,4.73
2019-04-21T12:01:03.340Z,4.90
2019-04-21T12:03:31.701Z,5.57
2019-04-21T12:05:59.617Z,7.45
2019-04-21T12:08:35.034Z,4.62
2019-04-21T12:10:57.742Z,3.47
2019-04-21T12:13:25.603Z,3.70
2019-04-21T12:15:53.275Z,2.30
2019-04-21T12:18:22.238Z,2.90
2019-04-21T12:20:51.609Z,3.13
2019-04-21T12:23:20.452Z,2.90
2019-04-21T12:25:49.517Z,5.03
2019-04-21T12:28:17.473Z,4.57
2019-04-21T12:30:47.373Z,2.87
2019-04-21T12:33:22.234Z,3.17
2019-04-21T12:35:51.476Z,3.03
2019-04-21T12:38:30.177Z,2.90
2019-04-21T12:40:48.707Z,2.43
2019-04-21T12:43:16.771Z,3.00
2019-04-21T12:45:44.605Z,3.20
2019-04-21T12:48:13.733Z,2.67
2019-04-21T12:50:41.744Z,4.37
2019-04-21T12:53:12.598Z,2.53
2019-04-21T12:55:42.788Z,3.33
2019-04-21T12:58:08.372Z,2.55
2019-04-21T13:00:36.778Z,3.67
2019-04-21T13:03:05.723Z,3.02
2019-04-21T13:05:33.773Z,2.60
2019-04-21T13:08:01.703Z,3.57
2019-04-21T13:10:30.546Z,2.50
2019-04-21T13:12:59.676Z,2.70
2019-04-21T13:15:27.504Z,2.87
2019-04-21T13:17:56.349Z,3.57
2019-04-21T13:20:25.307Z,4.13
2019-04-21T13:22:54.335Z,2.37
2019-04-21T13:25:23.518Z,2.62
2019-04-21T13:27:52.356Z,2.93
2019-04-21T13:30:20.226Z,3.30
2019-04-21T13:32:49.263Z,3.10
2019-04-21T13:35:17.154Z,3.50
2019-04-21T13:37:45.815Z,3.85
2019-04-21T13:40:34.151Z,2.52
2019-04-21T13:42:54.991Z,5.20
2019-04-21T13:45:18.414Z,3.00
2019-04-21T13:47:46.332Z,5.67
2019-04-21T13:50:15.281Z,3.13
2019-04-21T13:52:43.054Z,3.92
2019-04-21T13:55:11.847Z,5.93
2019-04-21T13:57:40.929Z,2.67
2019-04-21T14:00:09.034Z,6.33
2019-04-21T14:02:38.556Z,2.93
2019-04-21T14:05:08.527Z,3.33
2019-04-21T14:07:36.455Z,3.97
2019-04-21T14:10:07.142Z,4.97
2019-04-21T14:12:33.634Z,2.42
2019-04-21T14:15:02.302Z,3.37
2019-04-21T14:17:30.951Z,3.57
2019-04-21T14:19:59.444Z,4.28
2019-04-21T14:22:28.305Z,3.80
2019-04-21T14:24:56.329Z,2.83
2019-04-21T14:27:24.089Z,3.50
2019-04-21T14:29:51.731Z,2.53
2019-04-21T14:32:20.237Z,4.50
2019-04-21T14:34:50.222Z,4.23
2019-04-21T14:37:17.400Z,4.70
2019-04-21T14:39:52.743Z,2.87
2019-04-21T14:42:14.417Z,8.45
2019-04-21T14:44:42.934Z,2.97
2019-04-21T14:47:29.804Z,2.87
2019-04-21T14:50:22.280Z,2.87
2019-04-21T14:53:09.997Z,3.03
2019-04-21T14:55:39.510Z,3.67
2019-04-21T14:58:07.387Z,2.77
2019-04-21T15:00:35.199Z,2.35
2019-04-21T15:03:03.707Z,3.77
2019-04-21T15:05:31.401Z,2.80
2019-04-21T15:07:59.375Z,2.50
2019-04-21T15:10:30.576Z,3.93
2019-04-21T15:12:56.583Z,2.97
2019-04-21T15:15:25.565Z,4.12
2019-04-21T15:17:53.577Z,2.40
2019-04-21T15:20:22.031Z,2.72
2019-04-21T15:22:50.671Z,3.03
2019-04-21T15:25:18.438Z,3.23
2019-04-21T15:27:46.607Z,3.30
2019-04-21T15:30:14.465Z,2.55
2019-04-21T15:32:42.728Z,2.75
2019-04-21T15:35:11.047Z,4.60
2019-04-21T15:37:39.877Z,2.77
2019-04-21T15:40:18.209Z,2.50
2019-04-21T15:42:37.142Z,3.60
2019-04-21T15:45:06.289Z,3.98
2019-04-21T15:47:34.266Z,3.10
2019-04-21T15:50:07.386Z,2.60
2019-04-21T15:52:31.877Z,2.30
2019-04-21T15:55:06.192Z,4.73
2019-04-21T15:57:43.096Z,3.30
2019-04-21T16:00:34.808Z,2.75
2019-04-21T16:03:02.492Z,4.20
2019-04-21T16:05:30.829Z,3.30
2019-04-21T16:07:58.553Z,2.47
2019-04-21T16:10:34.337Z,4.33
2019-04-21T16:12:56.043Z,4.07
2019-04-21T16:15:23.915Z,4.10
2019-04-21T16:17:53.094Z,3.40
2019-04-21T16:20:21.850Z,2.83
2019-04-21T16:22:50.620Z,7.67
2019-04-21T16:25:18.838Z,5.33
2019-04-21T16:27:47.659Z,4.50
2019-04-21T16:30:15.686Z,3.07
2019-04-21T16:32:43.993Z,3.37
2019-04-21T16:35:14.311Z,5.47
2019-04-21T16:37:41.626Z,3.47
2019-04-21T16:40:09.574Z,2.87
2019-04-21T16:42:38.456Z,6.90
2019-04-21T16:45:07.292Z,4.13
2019-04-21T16:47:35.866Z,2.67
2019-04-21T16:50:03.610Z,6.60
2019-04-21T16:52:40.301Z,5.90
2019-04-21T16:55:16.889Z,8.13
2019-04-21T16:57:59.482Z,5.30
2019-04-21T17:00:31.236Z,4.03
2019-04-21T17:02:52.472Z,4.73
2019-04-21T17:05:20.393Z,8.10
2019-04-21T17:07:49.224Z,5.92
2019-04-21T17:10:17.076Z,5.83
2019-04-21T17:12:45.553Z,6.90
2019-04-21T17:15:29.379Z,4.90
2019-04-21T17:18:04.194Z,5.77
2019-04-21T17:20:25.075Z,3.67
2019-04-21T17:22:41.785Z,2.73
2019-04-21T17:25:10.537Z,3.47
2019-04-21T17:27:39.002Z,3.80
2019-04-21T17:30:06.842Z,2.83
2019-04-21T17:32:38.753Z,3.43
2019-04-21T17:35:04.066Z,2.83
2019-04-21T17:37:32.457Z,4.23
2019-04-21T17:40:03.430Z,3.43
2019-04-21T17:42:36.416Z,3.87
2019-04-21T17:44:59.409Z,3.77
2019-04-21T17:47:39.420Z,4.93
2019-04-21T17:50:04.276Z,3.77
2019-04-21T17:52:43.778Z,3.20
2019-04-21T17:55:19.792Z,4.40
2019-04-21T17:57:59.418Z,4.67
2019-04-21T18:00:53.532Z,4.75
2019-04-21T18:02:58.989Z,4.83
2019-04-21T18:05:32.023Z,3.40
2019-04-21T18:07:54.573Z,4.33
2019-04-21T18:10:29.365Z,5.07
2019-04-21T18:12:49.153Z,4.47
2019-04-21T18:15:22.035Z,6.87
2019-04-21T18:17:36.652Z,5.08
2019-04-21T18:20:05.981Z,4.75
2019-04-21T18:22:47.469Z,4.47
2019-04-21T18:25:28.022Z,4.97
2019-04-21T18:27:44.902Z,4.33
2019-04-21T18:30:12.859Z,6.03
2019-04-21T18:32:42.472Z,7.50
2019-04-21T18:35:20.565Z,6.87
2019-04-21T18:38:04.536Z,8.63
2019-04-21T18:40:29.718Z,10.03
2019-04-21T18:43:38.710Z,9.87
2019-04-21T18:46:03.573Z,7.50
2019-04-21T18:48:32.786Z,10.10
2019-04-21T18:51:06.255Z,7.17
2019-04-21T18:53:50.317Z,7.97
2019-04-21T18:56:06.536Z,10.00
2019-04-21T18:58:32.905Z,9.75
2019-04-21T19:01:08.801Z,7.50
2019-04-21T19:03:36.735Z,11.50
2019-04-21T19:06:08.144Z,10.07
2019-04-21T19:08:46.594Z,11.70
2019-04-21T19:11:18.993Z,8.55
2019-04-21T19:13:59.929Z,10.63
2019-04-21T19:19:01.607Z,10.63
2019-04-21T19:21:17.439Z,9.07
2019-04-21T19:23:52.148Z,9.77
2019-04-21T19:26:40.884Z,9.97
2019-04-21T19:28:58.800Z,12.30
2019-04-21T19:31:17.280Z,8.90
2019-04-21T19:33:36.432Z,9.57
2019-04-21T19:35:57.522Z,10.83
2019-04-21T19:38:35.027Z,10.30
2019-04-21T19:41:12.780Z,8.63
2019-04-21T19:43:46.019Z,14.93
2019-04-21T19:46:09.658Z,9.80
2019-04-21T19:48:44.461Z,9.33
2019-04-21T19:51:10.575Z,11.17
2019-04-21T19:53:37.129Z,14.10
2019-04-21T19:55:51.999Z,10.90
2019-04-21T19:58:27.560Z,12.20
2019-04-21T20:00:52.256Z,13.77
2019-04-21T20:03:18.771Z,11.60
2019-04-21T20:05:54.806Z,12.17
2019-04-21T20:08:31.957Z,9.13
2019-04-21T20:11:03.989Z,11.37
2019-04-21T20:13:45.370Z,15.70
2019-04-21T20:16:03.756Z,13.93
2019-04-21T20:18:23.174Z,11.53
2019-04-21T20:20:43.859Z,12.47
2019-04-21T20:23:18.764Z,14.73
2019-04-21T20:25:48.465Z,19.50
2019-04-21T20:28:21.389Z,14.40
2019-04-21T20:30:59.604Z,16.90
2019-04-21T20:33:48.501Z,15.10
2019-04-21T20:36:03.327Z,15.30
2019-04-21T20:38:19.074Z,15.20
2019-04-21T20:40:45.799Z,20.13
2019-04-21T20:43:28.502Z,17.23
2019-04-21T21:00:31.846Z,17.73
2019-04-21T21:03:01.169Z,18.50
2019-04-21T21:05:23.397Z,20.43
2019-04-21T21:07:57.006Z,19.30
2019-04-21T21:10:27.977Z,20.50
2019-04-21T21:13:07.580Z,20.90
2019-04-21T21:15:24.590Z,17.73
2019-04-21T21:18:01.409Z,21.07
2019-04-21T21:20:27.514Z,23.30
2019-04-21T21:22:50.656Z,19.50
2019-04-21T21:25:30.518Z,20.90
2019-04-21T21:27:45.165Z,19.20
2019-04-21T21:30:18.637Z,19.67
2019-04-21T21:32:49.378Z,19.77
2019-04-21T21:35:18.992Z,18.53
2019-04-21T21:37:54.884Z,23.80
2019-04-21T21:40:21.905Z,19.77
2019-04-21T21:42:35.347Z,20.27
2019-04-21T21:45:04.895Z,20.37
2019-04-21T21:47:47.556Z,22.03
2019-04-21T21:50:10.021Z,20.10
2019-04-21T21:52:39.799Z,19.00
2019-04-21T21:54:58.208Z,19.83
2019-04-21T21:57:26.164Z,18.23
2019-04-21T21:59:58.859Z,20.30
2019-04-21T22:02:33.086Z,20.67
2019-04-21T22:05:01.163Z,21.60
2019-04-21T22:07:26.913Z,18.80
2019-04-21T22:09:52.447Z,21.30
2019-04-21T22:12:20.315Z,20.27
2019-04-21T22:14:50.453Z,18.23
2019-04-21T22:17:32.769Z,21.10
2019-04-21T22:20:12.237Z,18.63
2019-04-21T22:22:32.539Z,19.13
2019-04-21T22:24:55.685Z,19.90
2019-04-21T22:27:14.931Z,21.07
2019-04-21T22:29:48.222Z,15.70
2019-04-21T22:32:17.466Z,18.17
2019-04-21T22:34:48.698Z,15.13
2019-04-21T22:37:25.946Z,17.93
2019-04-21T22:39:54.351Z,18.00
2019-04-21T22:42:17.938Z,16.70
2019-04-21T22:44:40.343Z,16.27
2019-04-21T22:47:15.674Z,14.17
2019-04-21T22:49:38.774Z,13.60
2019-04-21T22:52:11.075Z,15.87
2019-04-21T22:54:40.919Z,13.00
2019-04-21T22:57:12.896Z,11.97
2019-04-21T22:59:35.637Z,14.97
2019-04-21T23:02:06.370Z,13.67
2019-04-21T23:04:43.130Z,13.57
2019-04-21T23:07:11.268Z,14.80
2019-04-21T23:09:32.925Z,13.27
2019-04-21T23:12:01.903Z,13.40
2019-04-21T23:14:33.943Z,14.50
2019-04-21T23:17:22.944Z,16.47
2019-04-21T23:19:42.217Z,14.97
2019-04-21T23:22:16.137Z,13.60
2019-04-21T23:24:59.532Z,14.63
2019-04-21T23:27:11.879Z,15.57
2019-04-21T23:29:52.807Z,20.60
2019-04-21T23:32:14.931Z,14.50
2019-04-21T23:34:30.787Z,16.23
2019-04-21T23:37:04.392Z,18.40
2019-04-21T23:39:29.005Z,13.80
2019-04-21T23:41:56.954Z,12.73
2019-04-21T23:44:24.119Z,16.07
2019-04-21T23:46:57.583Z,14.23
2019-04-21T23:49:34.558Z,14.87
2019-04-21T23:52:00.347Z,13.63
2019-04-21T23:54:20.304Z,15.30
2019-04-21T23:56:49.255Z,14.27
2019-04-21T23:59:18.045Z,12.97
